Time;durP1;ratioP1;P1;durP2;ratioP2;P2;SDS_P1;SDS_P2;PMS_P1;PMS_P2;Temp;Humidity;BMP_temperature;BMP_pressure;BME280_temperature;BME280_humidity;BME280_pressure;Samples;Min_cycle;Max_cycle;Signal;HPM_P1;HPM_P2
2022/05/21 00:00:50;;;;;;;5.90;1.58;;;14.50;99.90;;;;;;7339901;19;108721;-84
2022/05/21 00:03:17;;;;;;;5.72;1.77;;;14.40;99.90;;;;;;7337693;19;110174;-84
2022/05/21 00:05:45;;;;;;;6.05;1.67;;;14.40;99.90;;;;;;7336855;19;107751;-84
2022/05/21 00:08:12;;;;;;;3.63;1.42;;;14.40;99.90;;;;;;7339510;19;108346;-83
2022/05/21 00:10:40;;;;;;;6.30;1.70;;;14.40;99.90;;;;;;7340285;19;108769;-84
2022/05/21 00:13:09;;;;;;;3.80;1.65;;;14.40;99.90;;;;;;7336764;19;107454;-83
2022/05/21 00:15:36;;;;;;;5.38;1.65;;;14.40;99.90;;;;;;7337868;19;108286;-84
2022/05/21 00:18:05;;;;;;;6.68;1.92;;;14.40;99.90;;;;;;7338956;19;107972;-83
2022/05/21 00:20:48;;;;;;;8.65;1.92;;;14.40;99.90;;;;;;7335935;19;111433;-84
2022/05/21 00:23:22;;;;;;;4.03;1.75;;;14.50;99.90;;;;;;7336783;19;108743;-84
2022/05/21 00:25:55;;;;;;;4.60;1.83;;;14.50;99.90;;;;;;7338036;19;107817;-83
2022/05/21 00:28:22;;;;;;;7.60;2.00;;;14.40;99.90;;;;;;7340227;19;108039;-83
2022/05/21 00:30:49;;;;;;;4.68;2.10;;;14.40;99.90;;;;;;7333989;19;109293;-84
2022/05/21 00:33:17;;;;;;;6.35;2.00;;;14.30;99.90;;;;;;7341834;19;108095;-83
2022/05/21 00:35:46;;;;;;;4.65;2.05;;;14.30;99.90;;;;;;7339123;19;111984;-83
2022/05/21 00:38:13;;;;;;;4.78;1.80;;;14.40;99.90;;;;;;7335618;19;111108;-83
2022/05/21 00:40:41;;;;;;;9.90;1.80;;;14.30;99.90;;;;;;7339367;19;108635;-83
2022/05/21 00:43:35;;;;;;;7.65;1.90;;;14.40;99.90;;;;;;7339575;19;109227;-82
2022/05/21 00:46:09;;;;;;;6.82;1.83;;;14.30;99.90;;;;;;7337810;19;111650;-83
2022/05/21 00:48:37;;;;;;;7.85;2.13;;;14.30;99.90;;;;;;7341675;19;108104;-83
2022/05/21 00:51:09;;;;;;;7.10;1.85;;;14.30;99.90;;;;;;7336541;19;109129;-83
2022/05/21 00:53:36;;;;;;;6.93;2.00;;;14.30;99.90;;;;;;7336095;19;108326;-83
2022/05/21 00:56:05;;;;;;;6.70;2.25;;;14.30;99.90;;;;;;7342321;19;108285;-83
2022/05/21 01:01:18;;;;;;;5.47;1.73;;;14.30;99.90;;;;;;7336302;19;107497;-83
2022/05/21 01:03:45;;;;;;;4.68;1.90;;;14.20;99.90;;;;;;7339442;19;108245;-83
2022/05/21 01:06:13;;;;;;;5.93;1.95;;;14.20;99.90;;;;;;7337579;19;112305;-83
2022/05/21 01:08:40;;;;;;;7.90;2.17;;;14.20;99.90;;;;;;7339159;19;110871;-83
2022/05/21 01:11:16;;;;;;;8.02;2.25;;;14.20;99.90;;;;;;7338083;19;109065;-83
2022/05/21 01:13:45;;;;;;;5.57;1.80;;;14.20;99.90;;;;;;7340793;19;109705;-83
2022/05/21 01:16:13;;;;;;;8.02;2.08;;;14.20;99.90;;;;;;7336500;19;108476;-83
2022/05/21 01:18:41;;;;;;;3.92;1.80;;;14.10;99.90;;;;;;7345026;19;109182;-83
2022/05/21 01:21:08;;;;;;;10.65;2.08;;;14.10;99.90;;;;;;7339817;19;108902;-83
2022/05/21 01:23:36;;;;;;;5.78;1.90;;;14.10;99.90;;;;;;7337094;19;113169;-83
2022/05/21 01:26:16;;;;;;;5.45;1.50;;;14.10;99.90;;;;;;7339184;19;108690;-83
2022/05/21 01:28:43;;;;;;;7.43;1.80;;;14.10;99.90;;;;;;7338911;19;108118;-83
2022/05/21 01:31:10;;;;;;;9.02;2.00;;;14.10;99.90;;;;;;7347752;19;111820;-83
2022/05/21 01:33:41;;;;;;;8.43;1.70;;;14.10;99.90;;;;;;7353729;19;107264;-83
2022/05/21 01:36:09;;;;;;;8.57;3.03;;;14.00;99.90;;;;;;7353231;19;108334;-84
2022/05/21 01:38:37;;;;;;;7.70;2.13;;;14.00;99.90;;;;;;7353312;19;109183;-84
2022/05/21 01:41:09;;;;;;;5.47;1.50;;;14.00;99.90;;;;;;7359427;19;107456;-83
2022/05/21 01:46:23;;;;;;;8.95;1.90;;;14.00;99.90;;;;;;7353319;19;108250;-83
2022/05/21 01:48:51;;;;;;;9.02;1.90;;;13.90;99.90;;;;;;7352280;19;107804;-83
2022/05/21 01:51:18;;;;;;;8.43;1.70;;;14.00;99.90;;;;;;7350025;19;108516;-83
2022/05/21 01:53:46;;;;;;;5.25;1.50;;;13.90;99.90;;;;;;7351437;19;111330;-83
2022/05/21 01:56:14;;;;;;;5.75;1.75;;;13.90;99.90;;;;;;7351294;19;109169;-83
2022/05/21 01:58:42;;;;;;;5.85;1.65;;;13.90;99.90;;;;;;7351396;19;108946;-83
2022/05/21 02:01:10;;;;;;;6.35;1.80;;;13.90;99.90;;;;;;7354820;19;110413;-83
2022/05/21 02:03:38;;;;;;;8.73;2.00;;;13.90;99.90;;;;;;7351461;19;111346;-83
2022/05/21 02:06:06;;;;;;;8.20;1.80;;;13.90;99.90;;;;;;7352095;19;107853;-83
2022/05/21 02:08:34;;;;;;;6.13;1.88;;;13.90;99.90;;;;;;7351872;19;108530;-83
2022/05/21 02:11:01;;;;;;;8.18;1.75;;;13.90;99.90;;;;;;7350611;19;110155;-84
2022/05/21 02:13:31;;;;;;;7.30;1.70;;;13.90;99.90;;;;;;7351267;19;108448;-83
2022/05/21 02:15:59;;;;;;;6.20;1.67;;;13.80;99.90;;;;;;7352135;19;108216;-83
2022/05/21 02:18:27;;;;;;;6.40;1.90;;;13.90;99.90;;;;;;7350857;19;109877;-83
2022/05/21 02:20:54;;;;;;;4.72;1.65;;;13.80;99.90;;;;;;7349853;19;109184;-83
2022/05/21 02:23:22;;;;;;;8.32;1.80;;;13.80;99.90;;;;;;7353690;19;108253;-83
2022/05/21 02:25:50;;;;;;;5.30;1.83;;;13.80;99.90;;;;;;7349644;19;108301;-83
2022/05/21 02:28:17;;;;;;;5.38;1.45;;;13.80;99.90;;;;;;7349325;19;108617;-84
2022/05/21 02:30:45;;;;;;;7.75;1.58;;;13.80;99.90;;;;;;7348911;19;112538;-83
2022/05/21 02:33:12;;;;;;;5.70;1.67;;;13.80;99.90;;;;;;7350667;19;108049;-83
2022/05/21 02:35:39;;;;;;;11.70;2.05;;;13.70;99.90;;;;;;7351823;19;107291;-84
2022/05/21 02:40:53;;;;;;;10.15;2.00;;;13.70;99.90;;;;;;7349866;19;107226;-83
2022/05/21 02:43:20;;;;;;;6.70;2.20;;;13.70;99.90;;;;;;7338491;19;111050;-84
2022/05/21 02:45:47;;;;;;;8.77;2.10;;;13.70;99.90;;;;;;7348750;19;108747;-84
2022/05/21 02:48:15;;;;;;;5.35;1.70;;;13.70;99.90;;;;;;7344098;19;107342;-83
2022/05/21 02:50:42;;;;;;;7.75;1.88;;;13.70;99.90;;;;;;7342122;19;112145;-83
2022/05/21 02:53:18;;;;;;;8.32;2.03;;;13.70;99.90;;;;;;7343200;19;108815;-83
2022/05/21 02:55:46;;;;;;;7.60;1.77;;;13.70;99.90;;;;;;7342713;19;108351;-83
2022/05/21 02:58:16;;;;;;;4.90;1.75;;;13.70;99.90;;;;;;7343666;19;112281;-83
2022/05/21 03:00:44;;;;;;;6.63;1.90;;;13.60;99.90;;;;;;7342068;19;107554;-83
2022/05/21 03:03:12;;;;;;;7.75;2.17;;;13.60;99.90;;;;;;7343115;19;107691;-83
2022/05/21 03:05:39;;;;;;;9.00;2.10;;;13.60;99.90;;;;;;7341427;19;108846;-83
2022/05/21 03:10:56;;;;;;;9.48;2.17;;;13.60;99.90;;;;;;7338936;19;109166;-83
2022/05/21 03:13:24;;;;;;;8.70;2.13;;;13.60;99.90;;;;;;7342710;19;108421;-82
2022/05/21 03:15:52;;;;;;;9.13;2.05;;;13.60;99.90;;;;;;7340708;19;108571;-82
2022/05/21 03:18:20;;;;;;;9.32;2.30;;;13.60;99.90;;;;;;7342351;19;108966;-84
2022/05/21 03:20:47;;;;;;;7.80;1.90;;;13.50;99.90;;;;;;7343355;19;112289;-83
2022/05/21 03:23:14;;;;;;;7.85;2.33;;;13.50;99.90;;;;;;7340551;19;108598;-82
2022/05/21 03:25:41;;;;;;;6.38;2.42;;;13.50;99.90;;;;;;7340827;19;109104;-83
2022/05/21 03:28:12;;;;;;;6.40;1.95;;;13.50;99.90;;;;;;7341662;19;109454;-83
2022/05/21 03:30:39;;;;;;;8.77;2.60;;;13.50;99.90;;;;;;7346714;19;108545;-83
2022/05/21 03:33:06;;;;;;;8.75;2.28;;;13.50;99.90;;;;;;7340590;19;108473;-83
2022/05/21 03:35:39;;;;;;;8.80;2.50;;;13.50;99.90;;;;;;7343156;19;111505;-83
2022/05/21 03:38:06;;;;;;;7.63;2.13;;;13.50;99.90;;;;;;7341008;19;111517;-82
2022/05/21 03:40:33;;;;;;;6.10;2.40;;;13.40;99.90;;;;;;7340711;19;109408;-83
2022/05/21 03:43:00;;;;;;;10.27;2.25;;;13.40;99.90;;;;;;7341143;19;108266;-83
2022/05/21 03:45:28;;;;;;;7.90;2.20;;;13.40;99.90;;;;;;7340592;19;109261;-83
2022/05/21 03:47:55;;;;;;;9.63;2.13;;;13.40;99.90;;;;;;7342860;19;108398;-83
2022/05/21 03:50:26;;;;;;;7.53;2.45;;;13.40;99.90;;;;;;7339896;19;108207;-83
2022/05/21 03:52:53;;;;;;;10.68;2.45;;;13.40;99.90;;;;;;7341380;19;109095;-83
2022/05/21 03:55:20;;;;;;;11.50;2.92;;;13.30;99.90;;;;;;7340070;19;112103;-83
2022/05/21 03:57:47;;;;;;;10.57;2.42;;;13.40;99.90;;;;;;7342114;19;110971;-83
2022/05/21 04:00:16;;;;;;;9.20;2.60;;;13.40;99.90;;;;;;7341477;19;108394;-83
2022/05/21 04:02:43;;;;;;;8.63;2.45;;;13.40;99.90;;;;;;7338592;19;110813;-83
2022/05/21 04:05:12;;;;;;;9.52;2.60;;;13.40;99.90;;;;;;7341231;19;109336;-82
2022/05/21 04:07:40;;;;;;;10.38;2.75;;;13.40;99.90;;;;;;7341304;19;110537;-83
2022/05/21 04:10:09;;;;;;;8.93;2.65;;;13.40;99.90;;;;;;7339480;19;108015;-84
2022/05/21 04:12:36;;;;;;;8.60;2.45;;;13.40;99.90;;;;;;7344650;19;108556;-83
2022/05/21 04:15:04;;;;;;;8.93;2.50;;;13.30;99.90;;;;;;7342170;19;108474;-83
2022/05/21 04:17:32;;;;;;;8.93;2.60;;;13.40;99.90;;;;;;7341726;19;109214;-83
2022/05/21 04:19:59;;;;;;;8.75;2.70;;;13.40;99.90;;;;;;7342081;19;107300;-84
2022/05/21 04:22:26;;;;;;;10.02;2.60;;;13.40;99.90;;;;;;7340045;19;108660;-83
2022/05/21 04:24:53;;;;;;;10.50;2.83;;;13.40;99.90;;;;;;7339811;19;108933;-84
2022/05/21 04:27:20;;;;;;;7.00;2.50;;;13.40;99.90;;;;;;7338918;19;108294;-83
2022/05/21 04:29:47;;;;;;;12.48;2.60;;;13.50;99.90;;;;;;7340422;19;111454;-83
2022/05/21 04:32:14;;;;;;;9.73;2.08;;;13.50;99.90;;;;;;7339008;19;108791;-83
2022/05/21 04:34:41;;;;;;;11.70;2.80;;;13.50;99.90;;;;;;7344331;19;107949;-84
2022/05/21 04:37:08;;;;;;;13.18;2.75;;;13.50;99.90;;;;;;7338739;19;110338;-83
2022/05/21 04:39:36;;;;;;;9.00;2.90;;;13.50;99.90;;;;;;7340184;19;110746;-83
2022/05/21 04:42:04;;;;;;;8.52;2.58;;;13.60;99.90;;;;;;7339323;19;108587;-83
2022/05/21 04:44:34;;;;;;;7.45;2.50;;;13.60;99.90;;;;;;7339772;19;109176;-83
2022/05/21 04:47:02;;;;;;;14.32;2.95;;;13.60;99.90;;;;;;7338653;19;111983;-83
2022/05/21 04:49:30;;;;;;;9.38;3.15;;;13.70;99.90;;;;;;7340085;19;108641;-83
2022/05/21 04:52:00;;;;;;;10.32;3.30;;;13.70;99.90;;;;;;7338386;19;109954;-83
2022/05/21 04:54:27;;;;;;;13.23;2.63;;;13.70;99.90;;;;;;7336491;19;108818;-83
2022/05/21 04:56:54;;;;;;;10.50;2.75;;;13.70;99.90;;;;;;7340652;19;108240;-83
2022/05/21 04:59:21;;;;;;;13.95;2.88;;;13.80;99.90;;;;;;7339012;19;108028;-83
2022/05/21 05:01:49;;;;;;;12.55;3.60;;;13.80;99.90;;;;;;7337486;19;108095;-83
2022/05/21 05:04:16;;;;;;;9.18;2.70;;;13.90;99.90;;;;;;7337115;19;110120;-83
2022/05/21 05:06:43;;;;;;;13.10;3.42;;;13.90;99.90;;;;;;7337689;19;107377;-83
2022/05/21 05:09:10;;;;;;;;;;;13.90;99.90;;;;;;7337168;19;108717;-83
2022/05/21 05:11:38;;;;;;;14.93;3.90;;;13.90;99.90;;;;;;7341401;19;109163;-83
2022/05/21 05:14:05;;;;;;;12.68;4.05;;;13.90;99.90;;;;;;7338221;19;109297;-83
2022/05/21 05:16:32;;;;;;;17.60;3.80;;;14.00;99.90;;;;;;7335184;19;107451;-82
2022/05/21 05:18:59;;;;;;;13.55;4.18;;;14.00;99.90;;;;;;7341542;19;110719;-83
2022/05/21 05:21:26;;;;;;;13.80;4.10;;;14.00;99.90;;;;;;7337336;19;110659;-83
2022/05/21 05:23:53;;;;;;;16.55;4.20;;;14.10;99.90;;;;;;7333846;19;108919;-82
2022/05/21 05:26:22;;;;;;;14.65;4.32;;;14.20;99.90;;;;;;7335301;19;108319;-83
2022/05/21 05:28:49;;;;;;;13.98;3.97;;;14.20;99.90;;;;;;7335528;19;108680;-83
2022/05/21 05:31:17;;;;;;;17.52;3.78;;;14.30;99.90;;;;;;7335762;19;110164;-83
2022/05/21 05:33:44;;;;;;;16.48;4.57;;;14.40;99.90;;;;;;7334909;19;108383;-83
2022/05/21 05:36:12;;;;;;;15.07;4.82;;;14.40;99.90;;;;;;7338339;19;110791;-82
2022/05/21 05:38:39;;;;;;;12.32;4.63;;;14.50;99.90;;;;;;7338380;19;108969;-83
2022/05/21 05:41:07;;;;;;;24.65;4.80;;;14.50;99.90;;;;;;7343403;19;107569;-83
2022/05/21 05:43:35;;;;;;;14.18;4.30;;;14.60;99.90;;;;;;7334560;19;112337;-82
2022/05/21 05:46:02;;;;;;;21.67;5.78;;;14.70;99.90;;;;;;7337779;19;108654;-83
2022/05/21 05:48:30;;;;;;;20.88;4.47;;;14.80;99.90;;;;;;7336087;19;110844;-83
2022/05/21 05:50:59;;;;;;;18.35;5.25;;;14.80;99.90;;;;;;7335193;19;109171;-83
2022/05/21 05:53:26;;;;;;;19.17;5.72;;;14.90;99.90;;;;;;7335897;19;108734;-82
2022/05/21 05:55:54;;;;;;;14.95;4.85;;;14.90;99.90;;;;;;7337111;19;108265;-82
2022/05/21 06:01:08;;;;;;;18.75;5.30;;;15.00;99.90;;;;;;7335776;19;108280;-83
2022/05/21 06:03:37;;;;;;;24.15;5.90;;;15.10;99.90;;;;;;7339931;19;108723;-83
2022/05/21 06:06:05;;;;;;;18.48;5.68;;;15.10;99.90;;;;;;7336034;19;108313;-84
2022/05/21 06:08:33;;;;;;;19.77;6.32;;;15.20;99.90;;;;;;7334798;19;107975;-83
2022/05/21 06:10:59;;;;;;;17.15;6.30;;;15.20;99.90;;;;;;7336232;19;109798;-83
2022/05/21 06:13:26;;;;;;;19.65;6.32;;;15.20;99.90;;;;;;7335623;19;108732;-83
2022/05/21 06:15:54;;;;;;;25.88;6.72;;;15.30;99.90;;;;;;7336199;19;108309;-82
2022/05/21 06:18:21;;;;;;;21.50;6.90;;;15.30;99.90;;;;;;7343195;19;109325;-83
2022/05/21 06:20:49;;;;;;;27.50;7.30;;;15.40;99.90;;;;;;7342585;19;111323;-84
2022/05/21 06:23:16;;;;;;;25.23;7.30;;;15.40;99.90;;;;;;7344184;19;108343;-84
2022/05/21 06:25:43;;;;;;;19.90;7.22;;;15.40;99.90;;;;;;7337359;19;108284;-82
2022/05/21 06:28:10;;;;;;;24.60;7.93;;;15.50;99.90;;;;;;7340351;19;110623;-83
2022/05/21 06:30:40;;;;;;;21.60;7.20;;;15.50;99.90;;;;;;7344593;19;108975;-83
2022/05/21 06:33:21;;;;;;;26.75;7.65;;;15.50;99.90;;;;;;7343628;19;109194;-82
2022/05/21 06:36:00;;;;;;;25.60;7.95;;;15.60;99.90;;;;;;7344903;19;112206;-82
2022/05/21 06:38:27;;;;;;;19.88;6.43;;;15.60;99.90;;;;;;7340793;19;108940;-83
2022/05/21 06:40:54;;;;;;;21.27;7.18;;;15.70;99.90;;;;;;7338558;19;107971;-82
2022/05/21 06:43:22;;;;;;;25.83;7.55;;;15.70;99.90;;;;;;7341289;19;108215;-84
2022/05/21 06:45:49;;;;;;;27.13;7.32;;;15.80;99.90;;;;;;7351177;19;109345;-84
2022/05/21 06:48:16;;;;;;;18.92;7.38;;;15.90;99.90;;;;;;7346468;19;108709;-84
2022/05/21 06:50:43;;;;;;;26.10;7.35;;;16.00;99.90;;;;;;7347311;19;108759;-84
2022/05/21 06:53:10;;;;;;;27.75;7.55;;;16.10;99.90;;;;;;7345567;19;108650;-84
2022/05/21 06:55:38;;;;;;;15.07;7.45;;;16.20;99.90;;;;;;7346723;19;108914;-84
2022/05/21 06:58:06;;;;;;;27.38;8.35;;;16.40;99.90;;;;;;7346616;19;112508;-84
2022/05/21 07:00:33;;;;;;;22.48;7.45;;;16.50;99.90;;;;;;7343378;19;108369;-84
2022/05/21 07:03:02;;;;;;;22.55;8.05;;;16.70;99.90;;;;;;7343951;19;108357;-83
2022/05/21 07:08:22;;;;;;;28.05;7.95;;;16.70;99.90;;;;;;7342828;19;108509;-84
2022/05/21 07:10:49;;;;;;;22.58;7.75;;;16.80;99.90;;;;;;7337977;19;108958;-84
2022/05/21 07:13:16;;;;;;;24.50;7.43;;;16.80;99.90;;;;;;7340852;19;108575;-82
2022/05/21 07:15:47;;;;;;;19.00;7.32;;;16.80;99.90;;;;;;7341259;19;108175;-84
2022/05/21 07:18:17;;;;;;;18.83;6.50;;;16.90;99.90;;;;;;7341679;19;109047;-83
2022/05/21 07:20:45;;;;;;;22.42;7.47;;;16.90;99.90;;;;;;7344862;19;108246;-82
2022/05/21 07:23:12;;;;;;;26.08;7.00;;;16.90;99.90;;;;;;7342428;19;108494;-82
2022/05/21 07:25:40;;;;;;;19.08;7.28;;;16.80;99.90;;;;;;7343317;19;109762;-81
2022/05/21 07:28:09;;;;;;;30.73;8.43;;;16.80;99.90;;;;;;7342295;19;108017;-81
2022/05/21 07:30:37;;;;;;;26.95;7.72;;;16.80;99.90;;;;;;7347872;19;108284;-82
2022/05/21 07:33:05;;;;;;;21.88;6.80;;;16.80;99.90;;;;;;7341190;19;107916;-82
2022/05/21 07:35:34;;;;;;;23.08;7.32;;;16.80;99.90;;;;;;7342132;19;107516;-81
2022/05/21 07:38:01;;;;;;;21.35;7.55;;;16.80;99.90;;;;;;7343813;19;111298;-82
2022/05/21 07:40:28;;;;;;;22.15;6.93;;;16.80;99.90;;;;;;7342042;19;108096;-82
2022/05/21 07:43:24;;;;;;;23.65;7.55;;;16.80;99.90;;;;;;7342987;19;108292;-82
2022/05/21 07:45:51;;;;;;;22.98;7.28;;;16.90;99.90;;;;;;7341683;19;109340;-82
2022/05/21 07:48:19;;;;;;;20.15;6.85;;;16.80;99.90;;;;;;7341981;19;107713;-82
2022/05/21 07:50:55;;;;;;;20.45;7.25;;;16.90;99.90;;;;;;7341838;19;108261;-82
2022/05/21 07:53:25;;;;;;;22.38;6.32;;;16.90;99.90;;;;;;7345995;19;111563;-81
2022/05/21 07:55:53;;;;;;;19.60;6.25;;;17.00;99.90;;;;;;7343941;19;108373;-82
2022/05/21 07:58:22;;;;;;;21.98;5.78;;;17.00;99.90;;;;;;7344830;19;109641;-82
2022/05/21 08:00:50;;;;;;;25.08;6.10;;;17.00;99.90;;;;;;7341155;19;108639;-82
2022/05/21 08:03:18;;;;;;;21.00;5.70;;;17.00;99.90;;;;;;7343022;19;109187;-82
2022/05/21 08:05:45;;;;;;;19.77;5.30;;;17.00;99.90;;;;;;7343720;19;109057;-82
2022/05/21 08:08:13;;;;;;;24.63;5.28;;;17.10;99.90;;;;;;7340113;19;108899;-82
2022/05/21 08:10:42;;;;;;;14.40;4.72;;;17.10;99.90;;;;;;7344133;19;110619;-83
2022/05/21 08:13:11;;;;;;;22.58;5.22;;;17.10;99.90;;;;;;7343708;19;109363;-82
2022/05/21 08:15:39;;;;;;;18.83;4.85;;;17.10;99.90;;;;;;7345763;19;108142;-82
2022/05/21 08:18:06;;;;;;;22.48;5.38;;;17.10;99.90;;;;;;7341617;19;108893;-83
2022/05/21 08:20:35;;;;;;;18.23;4.47;;;17.10;99.90;;;;;;7343848;19;107963;-83
2022/05/21 08:28:35;;;;;;;17.38;3.92;;;17.70;99.90;;;;;;7342880;19;108322;-83
2022/05/21 08:31:03;;;;;;;20.15;4.50;;;17.70;99.90;;;;;;7341610;19;108207;-83
2022/05/21 08:33:31;;;;;;;18.60;4.00;;;17.80;99.90;;;;;;7342331;19;109364;-83
2022/05/21 08:35:59;;;;;;;17.48;3.92;;;17.90;99.90;;;;;;7344827;19;107340;-83
2022/05/21 08:38:26;;;;;;;16.90;4.03;;;18.00;99.90;;;;;;7341667;19;108937;-83
2022/05/21 08:41:24;;;;;;;17.42;4.97;;;18.20;99.90;;;;;;7339473;19;111325;-83
2022/05/21 08:44:10;;;;;;;15.32;4.22;;;18.30;99.90;;;;;;7340503;19;108485;-83
2022/05/21 08:46:42;;;;;;;16.10;4.10;;;18.30;99.90;;;;;;7342036;19;108526;-82
2022/05/21 08:49:24;;;;;;;13.85;4.20;;;18.40;99.90;;;;;;7342896;19;108332;-83
2022/05/21 08:52:01;;;;;;;14.05;4.22;;;18.50;99.90;;;;;;7343477;19;108222;-83
2022/05/21 08:54:34;;;;;;;15.70;4.10;;;18.40;99.90;;;;;;7341674;19;109188;-83
2022/05/21 08:57:03;;;;;;;14.15;4.32;;;18.40;99.90;;;;;;7339290;19;108330;-83
2022/05/21 08:59:35;;;;;;;13.55;4.20;;;18.40;99.90;;;;;;7345989;19;109468;-82
2022/05/21 09:02:04;;;;;;;19.52;4.97;;;18.40;99.90;;;;;;7343369;19;112714;-83
2022/05/21 09:04:31;;;;;;;13.73;5.07;;;18.50;99.90;;;;;;7339658;19;108720;-82
2022/05/21 09:07:02;;;;;;;13.45;5.20;;;18.60;99.90;;;;;;7341125;19;109120;-83
2022/05/21 09:09:50;;;;;;;18.40;5.30;;;18.70;99.90;;;;;;7342172;19;107757;-82
2022/05/21 09:12:42;;;;;;;20.05;5.05;;;18.80;99.90;;;;;;7341579;19;108798;-83
2022/05/21 09:16:54;;;;;;;17.58;5.50;;;18.90;99.90;;;;;;7340138;19;109225;-86
2022/05/21 09:18:08;;;;;;;14.70;5.67;;;19.00;99.90;;;;;;7342145;19;108085;-85
2022/05/21 09:20:51;;;;;;;19.13;5.68;;;19.00;99.90;;;;;;7340811;19;107667;-85
2022/05/21 09:23:18;;;;;;;18.00;6.30;;;19.20;99.90;;;;;;7344007;19;109199;-86
2022/05/21 09:25:45;;;;;;;14.00;5.70;;;19.30;99.90;;;;;;7340003;19;107587;-85
2022/05/21 09:28:20;;;;;;;16.45;5.22;;;19.50;99.90;;;;;;7338858;19;109202;-86
2022/05/21 09:30:57;;;;;;;11.60;4.18;;;19.60;99.90;;;;;;7339492;19;107427;-86
2022/05/21 09:33:33;;;;;;;18.50;4.72;;;19.60;99.90;;;;;;7340715;19;108431;-87
2022/05/21 09:36:00;;;;;;;12.35;3.95;;;19.60;99.90;;;;;;7339693;19;109222;-86
2022/05/21 09:38:33;;;;;;;14.00;4.13;;;19.60;99.90;;;;;;7340243;19;111357;-86
2022/05/21 09:41:05;;;;;;;11.07;4.20;;;19.70;99.90;;;;;;7340700;19;108424;-85
2022/05/21 09:46:31;;;;;;;9.05;4.45;;;19.80;99.90;;;;;;7345899;19;108934;-84
2022/05/21 09:49:24;;;;;;;17.52;4.60;;;19.90;99.90;;;;;;7340712;19;109122;-84
2022/05/21 09:52:01;;;;;;;12.90;3.65;;;19.90;99.90;;;;;;7343565;19;107576;-85
2022/05/21 09:54:34;;;;;;;10.38;3.70;;;19.90;99.90;;;;;;7346724;19;107614;-85
2022/05/21 09:57:02;;;;;;;19.23;4.85;;;20.00;99.90;;;;;;7344102;19;109457;-86
2022/05/21 09:59:32;;;;;;;16.67;4.38;;;19.90;99.90;;;;;;7345941;19;107769;-84
2022/05/21 10:02:19;;;;;;;13.82;4.30;;;19.90;99.90;;;;;;7344923;19;107873;-85
2022/05/21 10:04:53;;;;;;;15.63;4.85;;;20.00;99.90;;;;;;7346432;19;108852;-85
2022/05/21 10:13:20;;;;;;;10.93;3.30;;;20.60;99.90;;;;;;7344087;19;109603;-85
2022/05/21 10:16:02;;;;;;;13.43;3.38;;;20.60;99.90;;;;;;7347863;19;108351;-86
2022/05/21 10:18:49;;;;;;;8.07;4.40;;;20.50;98.70;;;;;;7345636;19;108836;-85
2022/05/21 10:21:40;;;;;;;;;;;20.40;98.90;;;;;;7345949;19;107671;-85
2022/05/21 10:24:39;;;;;;;11.50;4.40;;;20.30;99.40;;;;;;7346041;19;108533;-86
2022/05/21 10:27:26;;;;;;;13.18;4.43;;;20.40;99.60;;;;;;7344736;19;108836;-86
2022/05/21 10:30:27;;;;;;;18.40;5.68;;;20.60;99.60;;;;;;7345543;19;108319;-85
2022/05/21 10:33:27;;;;;;;16.45;5.40;;;20.60;99.30;;;;;;7352110;19;107421;-85
2022/05/21 10:36:29;;;;;;;12.23;3.55;;;20.70;99.70;;;;;;7344665;19;108460;-86
2022/05/21 10:39:07;;;;;;;15.70;3.78;;;20.90;99.40;;;;;;7342491;19;107250;-86
2022/05/21 10:41:51;;;;;;;12.82;2.92;;;21.00;99.20;;;;;;7342030;19;109425;-86
2022/05/21 10:44:31;;;;;;;12.43;3.17;;;21.20;98.80;;;;;;7342239;19;107904;-85
2022/05/21 10:47:19;;;;;;;10.15;3.22;;;21.20;98.40;;;;;;7341905;19;107813;-85
2022/05/21 10:50:15;;;;;;;10.70;2.90;;;21.20;98.20;;;;;;7342159;19;109341;-85
2022/05/21 10:53:19;;;;;;;12.65;3.28;;;21.20;98.00;;;;;;7341852;19;108266;-85
2022/05/21 10:56:01;;;;;;;10.55;3.50;;;21.20;98.00;;;;;;7340185;19;108491;-85
2022/05/21 10:58:49;;;;;;;11.85;3.08;;;21.30;99.00;;;;;;7347390;19;110113;-86
2022/05/21 11:01:49;;;;;;;9.38;2.55;;;21.50;98.20;;;;;;7339684;19;107534;-86
2022/05/21 11:04:39;;;;;;;11.82;2.92;;;21.60;97.90;;;;;;7339904;19;112407;-85
2022/05/21 11:07:34;;;;;;;11.25;2.92;;;21.60;98.00;;;;;;7342832;19;107975;-86
2022/05/21 11:10:39;;;;;;;9.10;2.70;;;21.50;98.30;;;;;;7343151;19;107270;-85
2022/05/21 11:13:15;;;;;;;10.27;3.08;;;21.50;96.70;;;;;;7343152;19;109337;-85
2022/05/21 11:15:57;;;;;;;9.18;2.65;;;21.40;97.80;;;;;;7341658;19;107871;-86
2022/05/21 11:18:38;;;;;;;10.80;2.95;;;21.40;98.00;;;;;;7347102;19;109106;-85
2022/05/21 11:21:14;;;;;;;7.05;2.40;;;21.60;97.80;;;;;;7343214;19;109095;-86
2022/05/21 11:24:19;;;;;;;8.65;2.53;;;21.70;97.10;;;;;;7349117;19;108316;-84
2022/05/21 11:26:51;;;;;;;7.43;2.50;;;21.90;96.20;;;;;;7345065;19;108865;-86
2022/05/21 11:29:45;;;;;;;9.35;2.85;;;22.00;95.60;;;;;;7347555;19;107338;-89
2022/05/21 11:38:36;;;;;;;8.25;2.55;;;22.00;96.70;;;;;;7349756;19;109974;-88
2022/05/21 11:41:29;;;;;;;7.63;2.58;;;22.20;96.60;;;;;;7347581;19;109485;-90
2022/05/21 11:46:53;;;;;;;8.30;2.83;;;22.30;96.50;;;;;;7348412;19;108249;-90
2022/05/21 11:49:27;;;;;;;8.65;3.40;;;22.60;96.40;;;;;;7352474;19;107847;-90
2022/05/21 11:51:57;;;;;;;8.60;3.20;;;22.70;96.00;;;;;;7347502;19;108187;-91
2022/05/21 11:54:47;;;;;;;5.88;2.58;;;22.80;96.10;;;;;;7345669;19;110856;-89
2022/05/21 11:57:42;;;;;;;8.75;2.60;;;22.90;95.10;;;;;;7347149;19;108462;-91
2022/05/21 12:00:29;;;;;;;7.30;2.00;;;23.00;95.10;;;;;;7347589;19;107555;-90
2022/05/21 12:03:05;;;;;;;7.15;2.42;;;23.20;94.60;;;;;;7347033;19;111356;-90
2022/05/21 12:05:40;;;;;;;5.53;2.45;;;23.20;94.60;;;;;;7345151;19;108140;-90
2022/05/21 12:08:12;;;;;;;7.82;3.17;;;23.20;94.60;;;;;;7344460;19;110338;-91
2022/05/21 12:10:56;;;;;;;10.93;2.95;;;23.30;93.80;;;;;;7343912;19;107571;-90
2022/05/21 12:16:16;;;;;;;8.98;3.08;;;23.40;94.10;;;;;;7345988;19;107874;-90
2022/05/21 12:18:49;;;;;;;13.25;2.70;;;23.40;93.10;;;;;;7344058;19;111692;-91
2022/05/21 12:21:36;;;;;;;11.25;3.60;;;23.30;93.60;;;;;;7345394;19;107928;-90
2022/05/21 12:24:29;;;;;;;8.07;3.50;;;23.40;93.60;;;;;;7344123;19;108099;-91
2022/05/21 12:27:05;;;;;;;9.07;3.10;;;23.40;93.90;;;;;;7344320;19;108939;-90
2022/05/21 12:29:42;;;;;;;7.60;3.40;;;23.30;92.70;;;;;;7344352;19;109203;-89
2022/05/21 12:32:14;;;;;;;7.68;2.92;;;23.20;93.10;;;;;;7344015;19;108294;-88
2022/05/21 12:34:59;;;;;;;7.80;2.75;;;23.30;92.90;;;;;;7345233;19;107936;-91
2022/05/21 12:37:39;;;;;;;8.45;2.95;;;23.50;92.30;;;;;;7350203;19;107307;-90
2022/05/21 12:40:23;;;;;;;8.68;2.95;;;23.50;91.90;;;;;;7346341;19;110741;-90
2022/05/21 12:42:57;;;;;;;8.52;2.70;;;23.30;91.70;;;;;;7344986;19;109558;-91
2022/05/21 12:45:44;;;;;;;8.18;2.88;;;23.10;91.60;;;;;;7344910;19;107627;-89
2022/05/21 12:48:17;;;;;;;6.05;2.85;;;23.10;91.20;;;;;;7346411;19;108063;-92
2022/05/21 12:50:51;;;;;;;4.93;2.60;;;23.00;92.20;;;;;;7343330;19;108427;-89
2022/05/21 12:53:24;;;;;;;8.75;2.75;;;23.00;92.20;;;;;;7344219;19;108868;-89
2022/05/21 12:56:12;;;;;;;5.95;2.10;;;22.90;91.80;;;;;;7340783;19;109145;-92
2022/05/21 12:58:39;;;;;;;9.38;3.47;;;23.10;92.60;;;;;;7350923;19;107235;-89
2022/05/21 13:01:07;;;;;;;8.20;3.38;;;23.20;91.70;;;;;;7345129;19;109299;-91
2022/05/21 13:03:40;;;;;;;10.07;3.20;;;23.40;91.00;;;;;;7344842;19;108132;-91
2022/05/21 13:06:10;;;;;;;7.20;3.03;;;23.40;90.80;;;;;;7345181;19;108528;-90
2022/05/21 13:08:40;;;;;;;7.78;2.33;;;23.20;90.30;;;;;;7345303;19;109205;-90
2022/05/21 13:11:27;;;;;;;10.23;2.65;;;23.20;90.90;;;;;;7344433;19;107685;-90
2022/05/21 13:14:13;;;;;;;5.00;2.00;;;23.40;90.30;;;;;;7344773;19;107564;-87
2022/05/21 13:16:54;;;;;;;6.68;2.08;;;23.50;90.60;;;;;;7341485;19;108926;-90
2022/05/21 13:20:09;;;;;;;6.13;2.20;;;23.70;90.20;;;;;;7344274;19;108183;-87
2022/05/21 13:22:48;;;;;;;7.53;2.30;;;23.90;88.20;;;;;;7345652;19;108204;-90
2022/05/21 13:25:15;;;;;;;7.80;1.90;;;24.10;89.80;;;;;;7343389;19;107659;-91
2022/05/21 13:27:44;;;;;;;7.32;2.40;;;24.30;89.30;;;;;;7343366;19;108557;-91
2022/05/21 13:30:16;;;;;;;7.13;2.30;;;24.50;87.00;;;;;;7346304;19;109000;-90
2022/05/21 13:32:45;;;;;;;4.60;1.77;;;24.60;87.40;;;;;;7345254;19;107503;-90
2022/05/21 13:35:25;;;;;;;7.85;1.65;;;24.70;86.90;;;;;;7343590;19;108162;-91
2022/05/21 13:37:53;;;;;;;8.27;1.90;;;24.70;85.50;;;;;;7345176;19;108995;-89
2022/05/21 13:40:25;;;;;;;7.07;1.77;;;24.70;86.20;;;;;;7343258;19;108152;-92
2022/05/21 13:42:57;;;;;;;4.40;1.45;;;24.80;85.40;;;;;;7343881;19;108517;-91